sensor_id;sensor_type;location;lat;lon;timestamp;P1;durP1;ratioP1;P2;durP2;ratioP2
20040;SDS011;10181;48.072;9.884;2022-10-29T00:00:27;61.07;;;58.67;;
20040;SDS011;10181;48.072;9.884;2022-10-29T00:02:52;97.27;;;93.50;;
20040;SDS011;10181;48.072;9.884;2022-10-29T00:05:18;121.63;;;116.97;;
20040;SDS011;10181;48.072;9.884;2022-10-29T00:07:43;123.10;;;118.40;;
20040;SDS011;10181;48.072;9.884;2022-10-29T00:10:09;96.17;;;92.30;;
20040;SDS011;10181;48.072;9.884;2022-10-29T00:12:35;88.97;;;85.50;;
20040;SDS011;10181;48.072;9.884;2022-10-29T00:15:01;75.60;;;72.63;;
20040;SDS011;10181;48.072;9.884;2022-10-29T00:17:28;47.50;;;45.37;;
20040;SDS011;10181;48.072;9.884;2022-10-29T00:19:53;31.40;;;30.13;;
20040;SDS011;10181;48.072;9.884;2022-10-29T00:22:19;34.30;;;32.87;;
20040;SDS011;10181;48.072;9.884;2022-10-29T00:24:45;34.50;;;33.10;;
20040;SDS011;10181;48.072;9.884;2022-10-29T00:27:11;40.67;;;39.03;;
20040;SDS011;10181;48.072;9.884;2022-10-29T00:29:37;39.30;;;37.60;;
20040;SDS011;10181;48.072;9.884;2022-10-29T00:32:02;27.10;;;25.93;;
20040;SDS011;10181;48.072;9.884;2022-10-29T00:34:28;20.70;;;19.97;;
20040;SDS011;10181;48.072;9.884;2022-10-29T00:36:54;13.67;;;12.87;;
20040;SDS011;10181;48.072;9.884;2022-10-29T00:39:19;10.93;;;10.43;;
20040;SDS011;10181;48.072;9.884;2022-10-29T00:41:45;10.40;;;9.90;;
20040;SDS011;10181;48.072;9.884;2022-10-29T00:47:02;14.80;;;14.20;;
20040;SDS011;10181;48.072;9.884;2022-10-29T00:49:28;13.17;;;12.57;;
20040;SDS011;10181;48.072;9.884;2022-10-29T00:51:57;17.40;;;16.50;;
20040;SDS011;10181;48.072;9.884;2022-10-29T00:54:25;15.87;;;14.87;;
20040;SDS011;10181;48.072;9.884;2022-10-29T00:56:54;15.27;;;14.57;;
20040;SDS011;10181;48.072;9.884;2022-10-29T00:59:23;15.53;;;14.53;;
20040;SDS011;10181;48.072;9.884;2022-10-29T01:01:49;17.57;;;16.73;;
20040;SDS011;10181;48.072;9.884;2022-10-29T01:04:16;26.70;;;25.27;;
20040;SDS011;10181;48.072;9.884;2022-10-29T01:06:42;83.90;;;80.43;;
20040;SDS011;10181;48.072;9.884;2022-10-29T01:09:10;128.70;;;123.63;;
20040;SDS011;10181;48.072;9.884;2022-10-29T01:14:41;103.27;;;99.30;;
20040;SDS011;10181;48.072;9.884;2022-10-29T01:20:21;49.47;;;47.20;;
20040;SDS011;10181;48.072;9.884;2022-10-29T01:32:24;38.57;;;36.97;;
20040;SDS011;10181;48.072;9.884;2022-10-29T01:35:03;68.50;;;65.80;;
20040;SDS011;10181;48.072;9.884;2022-10-29T01:38:00;89.10;;;85.50;;
20040;SDS011;10181;48.072;9.884;2022-10-29T01:40:27;109.03;;;104.87;;
20040;SDS011;10181;48.072;9.884;2022-10-29T01:45:38;124.33;;;119.60;;
20040;SDS011;10181;48.072;9.884;2022-10-29T01:48:14;99.03;;;95.27;;
20040;SDS011;10181;48.072;9.884;2022-10-29T01:50:44;72.93;;;70.07;;
20040;SDS011;10181;48.072;9.884;2022-10-29T01:53:15;51.23;;;49.23;;
20040;SDS011;10181;48.072;9.884;2022-10-29T01:55:42;32.00;;;30.63;;
20040;SDS011;10181;48.072;9.884;2022-10-29T01:58:07;25.23;;;24.03;;
20040;SDS011;10181;48.072;9.884;2022-10-29T02:00:41;25.37;;;24.37;;
20040;SDS011;10181;48.072;9.884;2022-10-29T02:03:27;32.20;;;30.50;;
20040;SDS011;10181;48.072;9.884;2022-10-29T02:06:23;34.90;;;33.43;;
20040;SDS011;10181;48.072;9.884;2022-10-29T02:09:13;15.07;;;14.00;;
20040;SDS011;10181;48.072;9.884;2022-10-29T02:14:49;9.77;;;9.30;;
20040;SDS011;10181;48.072;9.884;2022-10-29T02:17:22;9.00;;;8.40;;
20040;SDS011;10181;48.072;9.884;2022-10-29T02:19:48;8.07;;;7.77;;
20040;SDS011;10181;48.072;9.884;2022-10-29T02:22:14;8.50;;;8.10;;
20040;SDS011;10181;48.072;9.884;2022-10-29T02:24:40;8.63;;;8.33;;
20040;SDS011;10181;48.072;9.884;2022-10-29T02:27:05;10.17;;;9.80;;
20040;SDS011;10181;48.072;9.884;2022-10-29T02:29:32;10.80;;;10.50;;
20040;SDS011;10181;48.072;9.884;2022-10-29T02:31:58;11.57;;;11.10;;
20040;SDS011;10181;48.072;9.884;2022-10-29T02:34:23;9.03;;;8.67;;
20040;SDS011;10181;48.072;9.884;2022-10-29T02:36:49;6.60;;;6.37;;
20040;SDS011;10181;48.072;9.884;2022-10-29T02:39:14;6.00;;;5.80;;
20040;SDS011;10181;48.072;9.884;2022-10-29T02:41:40;6.67;;;6.27;;
20040;SDS011;10181;48.072;9.884;2022-10-29T02:44:06;10.63;;;10.23;;
20040;SDS011;10181;48.072;9.884;2022-10-29T02:46:31;18.67;;;18.03;;
20040;SDS011;10181;48.072;9.884;2022-10-29T02:49:00;29.23;;;28.10;;
20040;SDS011;10181;48.072;9.884;2022-10-29T02:51:25;33.90;;;32.57;;
20040;SDS011;10181;48.072;9.884;2022-10-29T02:53:51;40.60;;;39.00;;
20040;SDS011;10181;48.072;9.884;2022-10-29T02:56:17;42.67;;;40.97;;
20040;SDS011;10181;48.072;9.884;2022-10-29T02:58:42;42.27;;;40.50;;
20040;SDS011;10181;48.072;9.884;2022-10-29T03:01:08;43.80;;;42.07;;
20040;SDS011;10181;48.072;9.884;2022-10-29T03:03:34;42.87;;;41.13;;
20040;SDS011;10181;48.072;9.884;2022-10-29T03:06:00;39.83;;;38.10;;
20040;SDS011;10181;48.072;9.884;2022-10-29T03:08:25;39.70;;;38.03;;
20040;SDS011;10181;48.072;9.884;2022-10-29T03:10:51;36.93;;;35.33;;
20040;SDS011;10181;48.072;9.884;2022-10-29T03:13:18;36.37;;;34.83;;
20040;SDS011;10181;48.072;9.884;2022-10-29T03:15:43;31.33;;;30.20;;
20040;SDS011;10181;48.072;9.884;2022-10-29T03:18:09;26.03;;;24.90;;
20040;SDS011;10181;48.072;9.884;2022-10-29T03:20:36;15.50;;;14.63;;
20040;SDS011;10181;48.072;9.884;2022-10-29T03:23:01;8.27;;;7.97;;
20040;SDS011;10181;48.072;9.884;2022-10-29T03:25:27;7.57;;;7.17;;
20040;SDS011;10181;48.072;9.884;2022-10-29T03:27:53;7.37;;;7.00;;
20040;SDS011;10181;48.072;9.884;2022-10-29T03:30:18;6.73;;;6.43;;
20040;SDS011;10181;48.072;9.884;2022-10-29T03:32:44;6.23;;;6.03;;
20040;SDS011;10181;48.072;9.884;2022-10-29T03:35:12;6.67;;;6.07;;
20040;SDS011;10181;48.072;9.884;2022-10-29T03:37:39;6.70;;;6.50;;
20040;SDS011;10181;48.072;9.884;2022-10-29T03:40:05;8.37;;;7.87;;
20040;SDS011;10181;48.072;9.884;2022-10-29T03:42:32;9.17;;;8.77;;
20040;SDS011;10181;48.072;9.884;2022-10-29T03:45:01;10.13;;;9.63;;
20040;SDS011;10181;48.072;9.884;2022-10-29T03:47:27;8.90;;;8.20;;
20040;SDS011;10181;48.072;9.884;2022-10-29T03:49:56;5.87;;;5.63;;
20040;SDS011;10181;48.072;9.884;2022-10-29T03:52:22;3.90;;;3.60;;
20040;SDS011;10181;48.072;9.884;2022-10-29T03:54:50;3.93;;;3.63;;
20040;SDS011;10181;48.072;9.884;2022-10-29T03:57:16;3.53;;;2.33;;
20040;SDS011;10181;48.072;9.884;2022-10-29T03:59:41;3.47;;;2.77;;
20040;SDS011;10181;48.072;9.884;2022-10-29T04:02:07;3.40;;;2.70;;
20040;SDS011;10181;48.072;9.884;2022-10-29T04:04:33;2.87;;;2.37;;
20040;SDS011;10181;48.072;9.884;2022-10-29T04:06:59;4.03;;;1.73;;
20040;SDS011;10181;48.072;9.884;2022-10-29T04:09:24;2.10;;;1.90;;
20040;SDS011;10181;48.072;9.884;2022-10-29T04:11:50;15.10;;;8.03;;
20040;SDS011;10181;48.072;9.884;2022-10-29T04:14:16;83.90;;;40.23;;
20040;SDS011;10181;48.072;9.884;2022-10-29T04:16:41;21.97;;;11.57;;
20040;SDS011;10181;48.072;9.884;2022-10-29T04:19:07;36.57;;;20.07;;
20040;SDS011;10181;48.072;9.884;2022-10-29T04:21:32;29.67;;;15.77;;
20040;SDS011;10181;48.072;9.884;2022-10-29T04:23:58;15.87;;;9.97;;
20040;SDS011;10181;48.072;9.884;2022-10-29T04:26:23;9.67;;;5.97;;
20040;SDS011;10181;48.072;9.884;2022-10-29T04:28:49;2.17;;;2.07;;
20040;SDS011;10181;48.072;9.884;2022-10-29T04:31:16;3.33;;;2.93;;
20040;SDS011;10181;48.072;9.884;2022-10-29T04:33:42;4.10;;;3.30;;
20040;SDS011;10181;48.072;9.884;2022-10-29T04:36:08;3.87;;;3.40;;
20040;SDS011;10181;48.072;9.884;2022-10-29T04:38:34;5.20;;;3.80;;
20040;SDS011;10181;48.072;9.884;2022-10-29T04:41:00;4.10;;;3.73;;
20040;SDS011;10181;48.072;9.884;2022-10-29T04:43:26;4.53;;;2.67;;
20040;SDS011;10181;48.072;9.884;2022-10-29T04:45:53;2.20;;;2.00;;
20040;SDS011;10181;48.072;9.884;2022-10-29T04:48:20;4.23;;;2.33;;
20040;SDS011;10181;48.072;9.884;2022-10-29T04:50:47;2.20;;;2.10;;
20040;SDS011;10181;48.072;9.884;2022-10-29T04:53:13;3.93;;;2.60;;
20040;SDS011;10181;48.072;9.884;2022-10-29T04:55:40;3.10;;;1.80;;
20040;SDS011;10181;48.072;9.884;2022-10-29T04:58:07;2.03;;;1.83;;
20040;SDS011;10181;48.072;9.884;2022-10-29T05:00:39;1.83;;;1.70;;
20040;SDS011;10181;48.072;9.884;2022-10-29T05:03:05;2.93;;;2.83;;
20040;SDS011;10181;48.072;9.884;2022-10-29T05:05:31;3.30;;;3.07;;
20040;SDS011;10181;48.072;9.884;2022-10-29T05:08:00;2.47;;;2.27;;
20040;SDS011;10181;48.072;9.884;2022-10-29T05:10:27;4.77;;;2.80;;
20040;SDS011;10181;48.072;9.884;2022-10-29T05:12:56;2.57;;;2.40;;
20040;SDS011;10181;48.072;9.884;2022-10-29T05:15:23;3.60;;;3.40;;
20040;SDS011;10181;48.072;9.884;2022-10-29T05:17:49;4.27;;;4.07;;
20040;SDS011;10181;48.072;9.884;2022-10-29T05:20:14;4.67;;;4.27;;
20040;SDS011;10181;48.072;9.884;2022-10-29T05:22:40;4.00;;;3.80;;
20040;SDS011;10181;48.072;9.884;2022-10-29T05:25:06;3.83;;;2.80;;
20040;SDS011;10181;48.072;9.884;2022-10-29T05:27:31;4.67;;;4.37;;
20040;SDS011;10181;48.072;9.884;2022-10-29T05:29:57;7.60;;;7.30;;
20040;SDS011;10181;48.072;9.884;2022-10-29T05:32:22;12.60;;;11.93;;
20040;SDS011;10181;48.072;9.884;2022-10-29T05:34:48;12.27;;;11.87;;
20040;SDS011;10181;48.072;9.884;2022-10-29T05:37:14;10.77;;;10.43;;
20040;SDS011;10181;48.072;9.884;2022-10-29T05:39:39;7.07;;;6.77;;
20040;SDS011;10181;48.072;9.884;2022-10-29T05:42:05;8.33;;;7.83;;
20040;SDS011;10181;48.072;9.884;2022-10-29T05:44:30;6.33;;;6.03;;
20040;SDS011;10181;48.072;9.884;2022-10-29T05:46:56;20.93;;;19.73;;
20040;SDS011;10181;48.072;9.884;2022-10-29T05:49:22;36.43;;;34.93;;
20040;SDS011;10181;48.072;9.884;2022-10-29T05:51:47;40.57;;;38.90;;
20040;SDS011;10181;48.072;9.884;2022-10-29T05:54:13;37.80;;;36.23;;
20040;SDS011;10181;48.072;9.884;2022-10-29T05:56:38;31.70;;;30.40;;
20040;SDS011;10181;48.072;9.884;2022-10-29T05:59:04;24.83;;;23.73;;
20040;SDS011;10181;48.072;9.884;2022-10-29T06:01:30;25.43;;;24.40;;
20040;SDS011;10181;48.072;9.884;2022-10-29T06:03:56;30.43;;;29.17;;
20040;SDS011;10181;48.072;9.884;2022-10-29T06:06:22;44.47;;;42.73;;
20040;SDS011;10181;48.072;9.884;2022-10-29T06:08:47;68.73;;;66.03;;
20040;SDS011;10181;48.072;9.884;2022-10-29T06:11:13;66.90;;;64.30;;
20040;SDS011;10181;48.072;9.884;2022-10-29T06:13:38;96.93;;;93.13;;
20040;SDS011;10181;48.072;9.884;2022-10-29T06:16:04;110.07;;;105.87;;
20040;SDS011;10181;48.072;9.884;2022-10-29T06:18:30;114.43;;;110.07;;
20040;SDS011;10181;48.072;9.884;2022-10-29T06:20:56;122.17;;;117.47;;
20040;SDS011;10181;48.072;9.884;2022-10-29T06:23:23;123.70;;;119.03;;
20040;SDS011;10181;48.072;9.884;2022-10-29T06:25:49;114.10;;;109.70;;
20040;SDS011;10181;48.072;9.884;2022-10-29T06:28:14;107.80;;;103.57;;
20040;SDS011;10181;48.072;9.884;2022-10-29T06:30:46;86.00;;;82.57;;
20040;SDS011;10181;48.072;9.884;2022-10-29T06:33:13;61.17;;;58.40;;
20040;SDS011;10181;48.072;9.884;2022-10-29T06:35:39;54.87;;;52.47;;
20040;SDS011;10181;48.072;9.884;2022-10-29T06:38:05;49.57;;;47.53;;
20040;SDS011;10181;48.072;9.884;2022-10-29T06:40:31;40.17;;;38.50;;
20040;SDS011;10181;48.072;9.884;2022-10-29T06:42:57;32.00;;;30.77;;
20040;SDS011;10181;48.072;9.884;2022-10-29T06:45:23;28.67;;;27.50;;
20040;SDS011;10181;48.072;9.884;2022-10-29T06:47:49;25.10;;;24.00;;
20040;SDS011;10181;48.072;9.884;2022-10-29T06:50:15;19.33;;;18.67;;
20040;SDS011;10181;48.072;9.884;2022-10-29T06:52:40;18.83;;;18.07;;
20040;SDS011;10181;48.072;9.884;2022-10-29T06:55:06;14.47;;;13.97;;
20040;SDS011;10181;48.072;9.884;2022-10-29T06:57:32;11.90;;;11.43;;
20040;SDS011;10181;48.072;9.884;2022-10-29T06:59:58;12.27;;;11.67;;
20040;SDS011;10181;48.072;9.884;2022-10-29T07:02:24;12.77;;;12.17;;
20040;SDS011;10181;48.072;9.884;2022-10-29T07:04:49;14.20;;;13.63;;
20040;SDS011;10181;48.072;9.884;2022-10-29T07:07:15;21.17;;;20.13;;
20040;SDS011;10181;48.072;9.884;2022-10-29T07:09:41;34.13;;;32.63;;
20040;SDS011;10181;48.072;9.884;2022-10-29T07:12:09;39.27;;;37.67;;
20040;SDS011;10181;48.072;9.884;2022-10-29T07:14:35;75.30;;;72.03;;
20040;SDS011;10181;48.072;9.884;2022-10-29T07:17:01;120.57;;;115.77;;
20040;SDS011;10181;48.072;9.884;2022-10-29T07:19:27;56.67;;;53.97;;
20040;SDS011;10181;48.072;9.884;2022-10-29T07:21:52;30.00;;;28.57;;
20040;SDS011;10181;48.072;9.884;2022-10-29T07:24:18;25.67;;;24.67;;
20040;SDS011;10181;48.072;9.884;2022-10-29T07:26:44;33.53;;;32.07;;
20040;SDS011;10181;48.072;9.884;2022-10-29T07:29:09;35.57;;;33.73;;
20040;SDS011;10181;48.072;9.884;2022-10-29T07:31:35;29.90;;;28.37;;
20040;SDS011;10181;48.072;9.884;2022-10-29T07:34:01;19.80;;;18.97;;
20040;SDS011;10181;48.072;9.884;2022-10-29T07:36:28;12.13;;;11.40;;
20040;SDS011;10181;48.072;9.884;2022-10-29T07:38:54;7.57;;;7.20;;
20040;SDS011;10181;48.072;9.884;2022-10-29T07:41:20;5.53;;;5.30;;
20040;SDS011;10181;48.072;9.884;2022-10-29T07:43:45;4.10;;;3.73;;
20040;SDS011;10181;48.072;9.884;2022-10-29T07:46:11;3.47;;;3.27;;
20040;SDS011;10181;48.072;9.884;2022-10-29T07:48:36;3.33;;;3.03;;
20040;SDS011;10181;48.072;9.884;2022-10-29T07:51:02;2.47;;;2.27;;
20040;SDS011;10181;48.072;9.884;2022-10-29T07:53:28;3.53;;;2.93;;
20040;SDS011;10181;48.072;9.884;2022-10-29T07:55:57;5.43;;;3.00;;
20040;SDS011;10181;48.072;9.884;2022-10-29T07:58:23;4.40;;;2.93;;
20040;SDS011;10181;48.072;9.884;2022-10-29T08:00:49;3.47;;;2.57;;
20040;SDS011;10181;48.072;9.884;2022-10-29T08:03:17;2.53;;;1.90;;
20040;SDS011;10181;48.072;9.884;2022-10-29T08:05:42;1.60;;;1.50;;
20040;SDS011;10181;48.072;9.884;2022-10-29T08:08:09;1.80;;;1.70;;
20040;SDS011;10181;48.072;9.884;2022-10-29T08:10:35;3.07;;;2.03;;
20040;SDS011;10181;48.072;9.884;2022-10-29T08:13:02;3.20;;;2.30;;
20040;SDS011;10181;48.072;9.884;2022-10-29T08:15:29;2.40;;;2.20;;
20040;SDS011;10181;48.072;9.884;2022-10-29T08:17:55;3.43;;;2.07;;
20040;SDS011;10181;48.072;9.884;2022-10-29T08:20:22;5.00;;;2.40;;
20040;SDS011;10181;48.072;9.884;2022-10-29T08:22:49;3.07;;;2.60;;
20040;SDS011;10181;48.072;9.884;2022-10-29T08:25:15;3.70;;;3.23;;
20040;SDS011;10181;48.072;9.884;2022-10-29T08:27:41;3.90;;;3.60;;
20040;SDS011;10181;48.072;9.884;2022-10-29T08:30:08;4.70;;;4.33;;
20040;SDS011;10181;48.072;9.884;2022-10-29T08:32:35;5.00;;;4.60;;
20040;SDS011;10181;48.072;9.884;2022-10-29T08:35:08;8.60;;;3.53;;
20040;SDS011;10181;48.072;9.884;2022-10-29T08:37:33;3.67;;;3.10;;
20040;SDS011;10181;48.072;9.884;2022-10-29T08:39:59;3.27;;;2.97;;
20040;SDS011;10181;48.072;9.884;2022-10-29T08:42:29;5.83;;;2.30;;
20040;SDS011;10181;48.072;9.884;2022-10-29T08:45:27;4.30;;;2.10;;
20040;SDS011;10181;48.072;9.884;2022-10-29T08:50:47;3.27;;;2.27;;
20040;SDS011;10181;48.072;9.884;2022-10-29T08:53:28;2.57;;;2.17;;
20040;SDS011;10181;48.072;9.884;2022-10-29T08:56:17;18.87;;;18.00;;
20040;SDS011;10181;48.072;9.884;2022-10-29T08:58:53;20.70;;;19.87;;
20040;SDS011;10181;48.072;9.884;2022-10-29T09:01:23;44.83;;;42.93;;
20040;SDS011;10181;48.072;9.884;2022-10-29T09:03:49;50.77;;;48.67;;
20040;SDS011;10181;48.072;9.884;2022-10-29T09:06:23;12.53;;;12.00;;
20040;SDS011;10181;48.072;9.884;2022-10-29T09:17:38;6.20;;;2.73;;
20040;SDS011;10181;48.072;9.884;2022-10-29T09:20:17;6.77;;;6.27;;
20040;SDS011;10181;48.072;9.884;2022-10-29T09:25:56;6.37;;;5.97;;
20040;SDS011;10181;48.072;9.884;2022-10-29T09:28:40;3.70;;;3.40;;
20040;SDS011;10181;48.072;9.884;2022-10-29T09:34:29;74.07;;;70.73;;
20040;SDS011;10181;48.072;9.884;2022-10-29T09:37:01;49.53;;;46.87;;
20040;SDS011;10181;48.072;9.884;2022-10-29T09:39:37;21.47;;;20.47;;
20040;SDS011;10181;48.072;9.884;2022-10-29T09:42:12;32.47;;;31.13;;
20040;SDS011;10181;48.072;9.884;2022-10-29T09:52:40;14.97;;;14.10;;
20040;SDS011;10181;48.072;9.884;2022-10-29T09:55:16;24.13;;;23.08;;
20040;SDS011;10181;48.072;9.884;2022-10-29T09:57:50;17.27;;;16.00;;
20040;SDS011;10181;48.072;9.884;2022-10-29T10:00:20;11.02;;;10.35;;
20040;SDS011;10181;48.072;9.884;2022-10-29T10:02:53;14.95;;;14.35;;
20040;SDS011;10181;48.072;9.884;2022-10-29T10:05:34;7.55;;;7.15;;
20040;SDS011;10181;48.072;9.884;2022-10-29T10:08:19;18.33;;;17.48;;
20040;SDS011;10181;48.072;9.884;2022-10-29T10:10:51;28.95;;;27.80;;
20040;SDS011;10181;48.072;9.884;2022-10-29T10:13:21;10.00;;;9.50;;
20040;SDS011;10181;48.072;9.884;2022-10-29T10:16:03;7.15;;;6.90;;
20040;SDS011;10181;48.072;9.884;2022-10-29T10:26:30;7.55;;;7.25;;
20040;SDS011;10181;48.072;9.884;2022-10-29T10:29:04;5.90;;;5.50;;
20040;SDS011;10181;48.072;9.884;2022-10-29T10:32:23;8.43;;;8.10;;
20040;SDS011;10181;48.072;9.884;2022-10-29T10:34:25;15.35;;;14.73;;
20040;SDS011;10181;48.072;9.884;2022-10-29T10:39:38;29.98;;;28.67;;
20040;SDS011;10181;48.072;9.884;2022-10-29T10:42:17;24.80;;;23.55;;
20040;SDS011;10181;48.072;9.884;2022-10-29T10:44:57;16.55;;;15.80;;
20040;SDS011;10181;48.072;9.884;2022-10-29T10:47:27;61.20;;;58.47;;
20040;SDS011;10181;48.072;9.884;2022-10-29T10:50:08;83.72;;;80.45;;
20040;SDS011;10181;48.072;9.884;2022-10-29T10:52:36;90.22;;;86.70;;
20040;SDS011;10181;48.072;9.884;2022-10-29T10:55:06;52.85;;;50.60;;
20040;SDS011;10181;48.072;9.884;2022-10-29T11:00:58;44.33;;;42.20;;
20040;SDS011;10181;48.072;9.884;2022-10-29T11:03:47;36.20;;;34.50;;
20040;SDS011;10181;48.072;9.884;2022-10-29T11:06:23;35.53;;;33.78;;
20040;SDS011;10181;48.072;9.884;2022-10-29T11:11:31;34.30;;;32.42;;
20040;SDS011;10181;48.072;9.884;2022-10-29T11:14:32;44.88;;;42.70;;
20040;SDS011;10181;48.072;9.884;2022-10-29T11:17:07;29.42;;;28.08;;
20040;SDS011;10181;48.072;9.884;2022-10-29T11:19:58;48.60;;;46.53;;
20040;SDS011;10181;48.072;9.884;2022-10-29T11:22:37;67.15;;;64.25;;
20040;SDS011;10181;48.072;9.884;2022-10-29T11:25:28;50.17;;;48.08;;
20040;SDS011;10181;48.072;9.884;2022-10-29T11:28:10;83.15;;;79.88;;
20040;SDS011;10181;48.072;9.884;2022-10-29T11:30:59;28.67;;;27.58;;
20040;SDS011;10181;48.072;9.884;2022-10-29T11:36:22;69.55;;;66.47;;
20040;SDS011;10181;48.072;9.884;2022-10-29T11:38:51;63.83;;;61.28;;
20040;SDS011;10181;48.072;9.884;2022-10-29T11:44:08;56.08;;;53.88;;
20040;SDS011;10181;48.072;9.884;2022-10-29T11:52:32;45.08;;;43.25;;
20040;SDS011;10181;48.072;9.884;2022-10-29T11:58:02;20.63;;;19.73;;
20040;SDS011;10181;48.072;9.884;2022-10-29T12:00:45;10.55;;;9.85;;
20040;SDS011;10181;48.072;9.884;2022-10-29T12:03:32;6.88;;;6.38;;
20040;SDS011;10181;48.072;9.884;2022-10-29T12:06:25;8.27;;;7.97;;
20040;SDS011;10181;48.072;9.884;2022-10-29T12:16:45;74.35;;;70.45;;
20040;SDS011;10181;48.072;9.884;2022-10-29T12:30:23;79.15;;;75.95;;
20040;SDS011;10181;48.072;9.884;2022-10-29T12:35:40;30.20;;;28.83;;
20040;SDS011;10181;48.072;9.884;2022-10-29T12:40:59;15.40;;;14.40;;
20040;SDS011;10181;48.072;9.884;2022-10-29T12:44:02;30.48;;;29.23;;
20040;SDS011;10181;48.072;9.884;2022-10-29T12:47:00;38.55;;;36.92;;
20040;SDS011;10181;48.072;9.884;2022-10-29T12:50:01;64.20;;;61.63;;
20040;SDS011;10181;48.072;9.884;2022-10-29T12:55:14;45.10;;;43.28;;
20040;SDS011;10181;48.072;9.884;2022-10-29T12:57:41;51.72;;;49.55;;
20040;SDS011;10181;48.072;9.884;2022-10-29T13:02:48;57.22;;;55.05;;
20040;SDS011;10181;48.072;9.884;2022-10-29T13:05:20;58.75;;;56.30;;
20040;SDS011;10181;48.072;9.884;2022-10-29T13:18:07;2.80;;;2.60;;
20040;SDS011;10181;48.072;9.884;2022-10-29T13:20:48;4.45;;;3.65;;
20040;SDS011;10181;48.072;9.884;2022-10-29T13:23:33;4.68;;;3.13;;
20040;SDS011;10181;48.072;9.884;2022-10-29T13:26:01;5.47;;;2.95;;
20040;SDS011;10181;48.072;9.884;2022-10-29T13:36:01;3.10;;;2.35;;
20040;SDS011;10181;48.072;9.884;2022-10-29T13:41:19;3.28;;;2.13;;
20040;SDS011;10181;48.072;9.884;2022-10-29T13:43:59;3.58;;;2.70;;
20040;SDS011;10181;48.072;9.884;2022-10-29T13:49:14;2.20;;;2.10;;
20040;SDS011;10181;48.072;9.884;2022-10-29T13:51:51;3.47;;;3.28;;
20040;SDS011;10181;48.072;9.884;2022-10-29T13:54:18;4.65;;;4.53;;
20040;SDS011;10181;48.072;9.884;2022-10-29T13:56:48;3.83;;;3.53;;
20040;SDS011;10181;48.072;9.884;2022-10-29T14:00:02;3.42;;;2.88;;
20040;SDS011;10181;48.072;9.884;2022-10-29T14:02:15;2.90;;;2.70;;
20040;SDS011;10181;48.072;9.884;2022-10-29T14:04:47;7.78;;;7.38;;
20040;SDS011;10181;48.072;9.884;2022-10-29T14:07:20;19.17;;;18.27;;
20040;SDS011;10181;48.072;9.884;2022-10-29T14:09:53;18.52;;;17.70;;
20040;SDS011;10181;48.072;9.884;2022-10-29T14:12:23;12.15;;;11.55;;
20040;SDS011;10181;48.072;9.884;2022-10-29T14:15:12;9.98;;;9.48;;
20040;SDS011;10181;48.072;9.884;2022-10-29T14:17:39;3.40;;;3.15;;
20040;SDS011;10181;48.072;9.884;2022-10-29T14:20:18;2.90;;;2.70;;
20040;SDS011;10181;48.072;9.884;2022-10-29T14:22:52;2.60;;;2.50;;
20040;SDS011;10181;48.072;9.884;2022-10-29T14:28:08;5.13;;;4.78;;
20040;SDS011;10181;48.072;9.884;2022-10-29T14:30:42;7.90;;;7.50;;
20040;SDS011;10181;48.072;9.884;2022-10-29T14:33:16;12.18;;;11.57;;
20040;SDS011;10181;48.072;9.884;2022-10-29T14:35:53;17.23;;;16.58;;
20040;SDS011;10181;48.072;9.884;2022-10-29T14:38:48;23.73;;;22.83;;
20040;SDS011;10181;48.072;9.884;2022-10-29T14:41:16;28.90;;;27.80;;
20040;SDS011;10181;48.072;9.884;2022-10-29T14:43:44;26.83;;;25.63;;
20040;SDS011;10181;48.072;9.884;2022-10-29T14:46:30;38.47;;;36.95;;
20040;SDS011;10181;48.072;9.884;2022-10-29T14:49:02;24.80;;;23.75;;
20040;SDS011;10181;48.072;9.884;2022-10-29T14:51:34;37.17;;;35.85;;
20040;SDS011;10181;48.072;9.884;2022-10-29T14:54:03;35.20;;;33.88;;
20040;SDS011;10181;48.072;9.884;2022-10-29T14:56:33;38.50;;;36.97;;
20040;SDS011;10181;48.072;9.884;2022-10-29T14:59:01;39.75;;;38.13;;
20040;SDS011;10181;48.072;9.884;2022-10-29T15:01:44;33.63;;;32.33;;
20040;SDS011;10181;48.072;9.884;2022-10-29T15:04:22;31.35;;;30.08;;
20040;SDS011;10181;48.072;9.884;2022-10-29T15:06:54;23.60;;;22.60;;
20040;SDS011;10181;48.072;9.884;2022-10-29T15:09:39;18.92;;;18.15;;
20040;SDS011;10181;48.072;9.884;2022-10-29T15:12:22;23.65;;;22.50;;
20040;SDS011;10181;48.072;9.884;2022-10-29T15:14:52;28.83;;;27.73;;
20040;SDS011;10181;48.072;9.884;2022-10-29T15:17:22;38.55;;;36.92;;
20040;SDS011;10181;48.072;9.884;2022-10-29T15:19:52;54.42;;;52.05;;
20040;SDS011;10181;48.072;9.884;2022-10-29T15:22:27;57.65;;;55.42;;
20040;SDS011;10181;48.072;9.884;2022-10-29T15:24:57;50.58;;;48.58;;
20040;SDS011;10181;48.072;9.884;2022-10-29T15:27:25;45.13;;;43.38;;
20040;SDS011;10181;48.072;9.884;2022-10-29T15:29:51;45.47;;;43.63;;
20040;SDS011;10181;48.072;9.884;2022-10-29T15:32:17;39.05;;;37.50;;
20040;SDS011;10181;48.072;9.884;2022-10-29T15:34:48;34.35;;;32.92;;
20040;SDS011;10181;48.072;9.884;2022-10-29T15:42:28;23.83;;;22.92;;
20040;SDS011;10181;48.072;9.884;2022-10-29T15:45:15;21.60;;;20.75;;
20040;SDS011;10181;48.072;9.884;2022-10-29T15:50:16;6.28;;;5.97;;
20040;SDS011;10181;48.072;9.884;2022-10-29T15:57:44;3.13;;;3.00;;
20040;SDS011;10181;48.072;9.884;2022-10-29T16:00:13;3.42;;;3.17;;
20040;SDS011;10181;48.072;9.884;2022-10-29T16:02:39;3.20;;;3.00;;
20040;SDS011;10181;48.072;9.884;2022-10-29T16:05:04;3.97;;;3.70;;
20040;SDS011;10181;48.072;9.884;2022-10-29T16:07:31;5.97;;;5.33;;
20040;SDS011;10181;48.072;9.884;2022-10-29T16:09:57;5.10;;;4.90;;
20040;SDS011;10181;48.072;9.884;2022-10-29T16:12:24;6.03;;;5.67;;
20040;SDS011;10181;48.072;9.884;2022-10-29T16:14:49;7.27;;;6.23;;
20040;SDS011;10181;48.072;9.884;2022-10-29T16:17:16;6.93;;;6.33;;
20040;SDS011;10181;48.072;9.884;2022-10-29T16:19:43;7.80;;;7.40;;
20040;SDS011;10181;48.072;9.884;2022-10-29T16:22:13;13.53;;;13.03;;
20040;SDS011;10181;48.072;9.884;2022-10-29T16:24:51;17.23;;;16.40;;
20040;SDS011;10181;48.072;9.884;2022-10-29T16:27:17;12.60;;;12.00;;
20040;SDS011;10181;48.072;9.884;2022-10-29T16:29:42;9.40;;;9.00;;
20040;SDS011;10181;48.072;9.884;2022-10-29T16:32:17;6.70;;;6.20;;
20040;SDS011;10181;48.072;9.884;2022-10-29T16:34:45;4.70;;;4.40;;
20040;SDS011;10181;48.072;9.884;2022-10-29T16:37:11;9.30;;;8.80;;
20040;SDS011;10181;48.072;9.884;2022-10-29T16:39:38;9.90;;;9.30;;
20040;SDS011;10181;48.072;9.884;2022-10-29T16:42:04;9.47;;;8.97;;
20040;SDS011;10181;48.072;9.884;2022-10-29T16:44:30;8.80;;;8.30;;
20040;SDS011;10181;48.072;9.884;2022-10-29T16:46:55;6.57;;;6.17;;
20040;SDS011;10181;48.072;9.884;2022-10-29T16:49:21;5.17;;;4.77;;
20040;SDS011;10181;48.072;9.884;2022-10-29T16:51:47;6.13;;;4.10;;
20040;SDS011;10181;48.072;9.884;2022-10-29T16:54:13;4.70;;;4.30;;
20040;SDS011;10181;48.072;9.884;2022-10-29T16:56:38;6.10;;;5.67;;
20040;SDS011;10181;48.072;9.884;2022-10-29T16:59:04;7.33;;;6.93;;
20040;SDS011;10181;48.072;9.884;2022-10-29T17:01:30;6.97;;;6.57;;
20040;SDS011;10181;48.072;9.884;2022-10-29T17:03:55;5.23;;;4.80;;
20040;SDS011;10181;48.072;9.884;2022-10-29T17:06:21;3.87;;;3.57;;
20040;SDS011;10181;48.072;9.884;2022-10-29T17:08:47;3.50;;;3.30;;
20040;SDS011;10181;48.072;9.884;2022-10-29T17:11:12;5.07;;;4.77;;
20040;SDS011;10181;48.072;9.884;2022-10-29T17:13:38;11.13;;;10.67;;
20040;SDS011;10181;48.072;9.884;2022-10-29T17:16:14;20.20;;;19.37;;